createdAt,value
2023-03-10T12:36:05.383Z,9.763026
2023-03-10T12:37:05.298Z,9.762883
2023-03-10T12:38:26.373Z,9.762807
2023-03-10T12:39:05.272Z,9.762959
2023-03-10T12:40:05.311Z,9.762908
2023-03-10T12:41:05.270Z,9.762890
2023-03-10T12:42:05.309Z,9.762906
2023-03-10T12:43:05.231Z,9.762876
2023-03-10T12:44:05.269Z,9.762793
2023-03-10T12:45:05.217Z,9.762980
2023-03-10T12:46:05.243Z,9.762844
2023-03-10T12:47:05.239Z,9.762887
2023-03-10T12:48:05.219Z,9.762904
2023-03-10T12:49:05.188Z,9.762809
2023-03-10T12:50:05.363Z,9.762929
2023-03-10T12:51:05.151Z,9.762891
2023-03-10T12:52:05.145Z,9.762884
2023-03-10T12:53:05.138Z,9.762941
2023-03-10T12:54:05.151Z,9.762873
2023-03-10T12:55:05.116Z,9.762893
2023-03-10T12:56:05.098Z,9.762870
2023-03-10T12:57:05.152Z,9.762864
2023-03-10T12:58:05.114Z,9.762838
2023-03-10T12:59:05.343Z,9.762852
2023-03-10T13:00:05.112Z,9.763004
2023-03-10T13:01:05.406Z,9.762858
2023-03-10T13:02:05.101Z,9.762911
2023-03-10T13:03:05.120Z,9.762893
2023-03-10T13:04:05.170Z,9.762840
2023-03-10T13:05:05.077Z,9.762845
2023-03-10T13:06:05.055Z,9.762881
2023-03-10T13:07:05.031Z,9.762838
2023-03-10T13:08:05.000Z,9.762899
2023-03-10T13:09:05.077Z,9.762816
2023-03-10T13:10:04.977Z,9.762836
2023-03-10T13:11:05.006Z,9.763000
2023-03-10T13:12:04.956Z,9.762837
2023-03-10T13:13:04.966Z,9.762689
2023-03-10T13:14:04.967Z,9.762765
2023-03-10T13:15:04.979Z,9.762721
2023-03-10T13:16:05.019Z,9.762371
2023-03-10T13:17:04.943Z,9.762609
2023-03-10T13:18:04.987Z,9.762794
2023-03-10T13:19:04.935Z,9.762769
2023-03-10T13:20:04.929Z,9.762773
2023-03-10T13:21:04.877Z,9.762807
2023-03-10T13:22:04.885Z,9.762934
2023-03-10T13:23:04.863Z,9.762857
2023-03-10T13:24:04.884Z,9.762851
2023-03-10T13:25:04.856Z,9.762933
2023-03-10T13:26:04.826Z,9.762735
2023-03-10T13:27:04.849Z,9.762892
2023-03-10T13:28:04.809Z,9.762860
2023-03-10T13:29:04.840Z,9.762123
2023-03-10T13:30:05.830Z,9.760974
2023-03-10T13:31:04.792Z,9.761239
2023-03-10T13:32:04.999Z,9.762002
2023-03-10T13:33:04.787Z,9.761056
2023-03-10T13:34:04.776Z,9.761823
2023-03-10T13:35:04.778Z,9.762553
2023-03-10T13:36:04.817Z,9.762608
2023-03-10T13:37:04.808Z,9.762748
2023-03-10T13:38:04.739Z,9.762668
2023-03-10T13:39:04.696Z,9.762653
2023-03-10T13:40:05.668Z,9.762720
2023-03-10T13:41:04.660Z,9.762938
2023-03-10T13:42:04.641Z,9.763124
2023-03-10T13:43:04.623Z,9.762995
2023-03-10T13:44:04.627Z,9.762982
2023-03-10T13:45:04.611Z,9.763488
2023-03-10T13:46:04.624Z,9.762585
2023-03-10T13:47:04.608Z,9.763774
2023-03-10T13:48:04.573Z,9.765492
2023-03-10T13:49:04.679Z,9.765882
2023-03-10T13:50:04.559Z,9.765247
2023-03-10T13:51:04.544Z,9.764215
2023-03-10T13:52:04.530Z,9.764099
2023-03-10T13:53:04.620Z,9.764104
2023-03-10T13:54:04.524Z,9.764544
2023-03-10T13:55:04.513Z,9.764711
2023-03-10T13:56:04.494Z,9.764847
2023-03-10T13:57:04.499Z,9.765185
2023-03-10T13:58:04.477Z,9.765405
2023-03-10T13:59:04.467Z,9.766131
2023-03-10T14:00:04.464Z,9.766312
2023-03-10T14:01:04.459Z,9.766472
2023-03-10T14:02:04.434Z,9.767069
2023-03-10T14:03:04.424Z,9.766926
2023-03-10T14:04:04.491Z,9.767673
2023-03-10T14:05:04.424Z,9.767626
2023-03-10T14:06:04.400Z,9.768300
2023-03-10T14:07:04.386Z,9.768300
2023-03-10T14:08:04.386Z,9.764532
2023-03-10T14:09:05.313Z,9.764297
2023-03-10T14:10:04.363Z,9.764534
2023-03-10T14:11:04.341Z,9.763050
2023-03-10T14:12:04.346Z,9.763036
2023-03-10T14:13:04.322Z,9.762603
2023-03-10T14:14:04.323Z,9.763163
2023-03-10T14:15:04.316Z,9.762804
2023-03-10T14:16:04.298Z,9.763039
2023-03-10T14:17:04.493Z,9.762774
2023-03-10T14:18:04.275Z,9.762524
2023-03-10T14:19:04.264Z,9.762680
2023-03-10T14:20:04.306Z,9.762714
2023-03-10T14:21:04.255Z,9.762542
2023-03-10T14:22:04.227Z,9.762761
2023-03-10T14:23:04.225Z,9.762678
2023-03-10T14:24:04.265Z,9.762568
2023-03-10T14:25:04.214Z,9.762598
2023-03-10T14:26:04.194Z,9.762617
2023-03-10T14:27:04.207Z,9.762743
2023-03-10T14:28:04.167Z,9.762531
2023-03-10T14:29:04.163Z,9.762791
2023-03-10T14:30:04.165Z,9.762783
2023-03-10T14:31:04.204Z,9.762782
2023-03-10T14:32:04.141Z,9.762820
2023-03-10T14:33:04.127Z,9.762733
2023-03-10T14:34:04.135Z,9.763011
2023-03-10T14:35:04.110Z,9.763068
2023-03-10T14:36:04.116Z,9.762782
2023-03-10T14:37:04.084Z,9.763097
2023-03-10T14:38:04.079Z,9.762712
2023-03-10T14:39:04.069Z,9.762687
2023-03-10T14:40:04.065Z,9.762521
2023-03-10T14:41:04.057Z,9.762876
2023-03-10T14:42:04.032Z,9.762849
2023-03-10T14:43:04.025Z,9.762884
2023-03-10T14:44:04.020Z,9.762836
2023-03-10T16:14:02.734Z,9.762776
2023-03-10T16:15:02.765Z,9.763193
2023-03-10T16:16:02.743Z,9.762944
2023-03-10T16:17:02.698Z,9.763089
2023-03-10T16:18:02.697Z,9.762957
2023-03-10T16:19:02.694Z,9.763033
2023-03-10T16:20:02.668Z,9.763201
2023-03-10T16:21:02.693Z,9.763181
2023-03-10T16:22:02.645Z,9.763181
2023-03-10T16:23:02.631Z,9.763181
2023-03-10T16:24:02.622Z,9.763181
2023-03-10T16:25:02.621Z,9.763181
2023-03-10T16:26:02.608Z,9.763181
2023-03-10T16:27:02.630Z,9.763181
2023-03-10T16:28:02.585Z,9.763181
2023-03-10T16:29:02.576Z,9.763181
2023-03-10T16:30:02.707Z,9.763181
2023-03-10T16:31:03.250Z,9.763181
2023-03-10T16:32:02.727Z,9.763181
2023-03-10T16:33:02.537Z,9.763181
2023-03-10T16:34:02.526Z,9.763181
2023-03-10T16:35:02.512Z,9.763181
2023-03-10T16:36:02.553Z,9.763181
2023-03-10T16:37:02.506Z,9.763181
2023-03-10T16:38:02.479Z,9.763181
2023-03-10T16:39:02.475Z,9.763181
2023-03-10T16:40:02.462Z,9.763181
2023-03-10T16:41:02.449Z,9.763181
2023-03-10T16:42:02.458Z,9.763181
2023-03-10T16:43:02.439Z,9.763181
2023-03-10T16:44:02.412Z,9.763181
2023-03-10T16:45:02.407Z,9.763163
2023-03-10T16:46:02.412Z,9.763074
2023-03-10T16:47:02.423Z,9.763133
2023-03-10T16:48:02.372Z,9.762768
2023-03-10T16:49:02.372Z,9.763122
2023-03-10T16:50:02.361Z,9.762583
2023-03-10T16:51:02.345Z,9.762394
2023-03-10T16:52:02.346Z,9.763151
2023-03-10T16:53:02.319Z,9.763457
2023-03-10T16:54:02.314Z,9.763458
2023-03-10T16:55:02.299Z,9.763458
2023-03-10T16:56:02.287Z,9.763458
2023-03-10T16:57:02.291Z,9.763458
2023-03-10T16:58:02.268Z,9.763458
2023-03-10T16:59:02.259Z,9.763458
2023-03-10T17:00:02.313Z,9.763458
2023-03-10T17:01:02.371Z,9.763458
2023-03-10T17:02:02.249Z,9.763458
2023-03-10T17:03:02.238Z,9.763458
2023-03-10T17:04:02.266Z,9.763458
2023-03-10T17:05:02.203Z,9.763458
2023-03-10T17:06:02.189Z,9.763458
2023-03-10T17:07:02.189Z,9.763458
2023-03-10T17:08:02.756Z,9.762541
2023-03-10T17:09:02.177Z,9.762340
2023-03-10T17:10:02.240Z,9.762340
2023-03-10T17:11:04.678Z,9.762340
2023-03-10T17:12:02.166Z,9.762340
2023-03-10T17:13:02.130Z,9.762340
2023-03-10T17:14:02.127Z,9.762340
2023-03-10T17:15:02.127Z,9.762340
2023-03-10T17:16:02.098Z,9.762340
2023-03-10T17:17:02.419Z,9.762340
2023-03-10T17:18:02.085Z,9.762340
2023-03-10T17:19:02.102Z,9.762340
2023-03-10T17:20:02.109Z,9.762340
2023-03-10T17:21:02.071Z,9.762340
2023-03-10T17:22:02.102Z,9.762340
2023-03-10T17:23:02.057Z,9.762340
2023-03-10T17:24:02.029Z,9.762340
2023-03-10T17:25:02.007Z,9.762340
2023-03-10T17:26:02.000Z,9.762340
2023-03-10T17:27:01.994Z,9.762340
2023-03-10T17:28:01.973Z,9.762340
2023-03-10T17:29:01.975Z,9.762340
2023-03-10T17:30:02.060Z,9.762340
2023-03-10T17:31:01.963Z,9.762340
2023-03-10T17:32:02.031Z,9.762340
2023-03-10T17:33:01.921Z,9.762340
2023-03-10T17:34:01.918Z,9.762340
2023-03-10T17:35:01.912Z,9.762340
2023-03-10T17:36:01.901Z,9.762340
2023-03-10T17:37:01.929Z,9.762340
2023-03-10T17:38:01.878Z,9.762340
2023-03-10T17:39:01.871Z,9.762340
2023-03-10T17:40:01.833Z,9.762340
2023-03-10T17:41:02.842Z,9.762340
2023-03-10T17:42:01.838Z,9.762340
2023-03-10T17:43:17.295Z,9.762340
2023-03-10T17:44:03.819Z,9.762340
2023-03-10T17:45:01.805Z,9.762340
2023-03-10T17:46:01.846Z,9.762340
2023-03-10T17:47:01.809Z,9.762340
2023-03-10T17:48:01.769Z,9.762340
2023-03-10T17:49:01.798Z,9.762340
2023-03-10T17:50:01.749Z,9.762340
2023-03-10T17:51:01.736Z,9.762340
2023-03-10T17:52:01.739Z,9.762340
2023-03-10T17:53:01.719Z,9.762340
2023-03-10T17:54:01.717Z,9.762340
2023-03-10T17:55:01.708Z,9.762716
2023-03-10T17:56:01.688Z,9.762713
2023-03-10T17:57:01.684Z,9.762354
2023-03-10T17:58:01.670Z,9.762354
2023-03-10T17:59:01.654Z,9.762354
2023-03-10T18:00:01.650Z,9.762354
2023-03-10T18:01:01.637Z,9.762354
2023-03-10T18:02:01.658Z,9.762354
2023-03-10T18:03:01.805Z,9.762354
2023-03-10T18:04:01.655Z,9.762354
2023-03-10T18:05:01.593Z,9.762354
2023-03-10T18:06:01.592Z,9.762354
2023-03-10T18:07:01.589Z,9.762354
2023-03-10T18:08:01.582Z,9.762354
2023-03-10T18:09:01.566Z,9.762354
2023-03-10T18:10:01.551Z,9.762354
2023-03-10T18:11:01.553Z,9.762354
2023-03-10T18:12:01.549Z,9.762354
2023-03-10T18:13:01.524Z,9.762354
2023-03-10T18:14:03.615Z,9.762354
2023-03-10T18:15:02.509Z,9.762354
2023-03-10T18:16:01.578Z,9.762354
2023-03-10T18:17:01.512Z,9.762354
2023-03-10T18:18:01.477Z,9.762354
2023-03-10T18:19:01.467Z,9.762354
2023-03-10T18:20:01.453Z,9.762354
2023-03-10T18:21:01.449Z,9.762354
2023-03-10T18:22:01.435Z,9.762354
2023-03-10T18:23:01.442Z,9.762354
2023-03-10T18:24:01.415Z,9.762354
2023-03-10T18:25:01.418Z,9.762354
2023-03-10T18:26:01.390Z,9.762354
2023-03-10T18:27:01.393Z,9.762354
2023-03-10T18:28:01.385Z,9.762354
2023-03-10T18:29:01.369Z,9.762354
2023-03-10T18:30:02.362Z,9.762354
2023-03-10T18:31:01.396Z,9.762354
2023-03-10T18:32:01.324Z,9.762354
2023-03-10T18:33:01.329Z,9.762354
2023-03-10T18:34:01.325Z,9.762354
2023-03-10T18:35:01.307Z,9.762354
2023-03-10T18:36:01.312Z,9.762354
2023-03-10T18:37:01.288Z,9.762354
2023-03-10T18:38:01.283Z,9.762354
2023-03-10T18:39:01.264Z,9.762354
2023-03-10T18:40:01.252Z,9.762354
2023-03-10T18:41:01.246Z,9.762354
2023-03-10T18:42:01.238Z,9.762354
2023-03-10T18:43:01.236Z,9.762354
2023-03-10T18:44:01.268Z,9.762354
2023-03-10T18:45:01.210Z,9.762016
2023-03-10T18:46:01.255Z,9.761952
2023-03-10T18:47:01.183Z,9.762046
2023-03-10T18:48:01.288Z,9.762115
2023-03-10T18:49:01.173Z,9.762489
2023-03-10T18:50:01.152Z,9.762297
2023-03-10T18:51:01.166Z,9.762351
2023-03-10T18:52:01.132Z,9.762577
2023-03-10T18:53:01.128Z,9.761731
2023-03-10T18:54:01.110Z,9.761322
2023-03-10T18:55:01.100Z,9.761431
2023-03-10T18:56:01.160Z,9.761911
2023-03-10T18:57:01.824Z,9.761911
2023-03-10T18:58:01.080Z,9.761911
2023-03-10T18:59:01.201Z,9.761911
2023-03-10T19:00:01.230Z,9.761911
2023-03-10T19:01:01.707Z,9.761911
2023-03-10T19:02:01.210Z,9.761911
2023-03-10T19:03:01.089Z,9.761911
2023-03-10T19:04:01.014Z,9.761911
2023-03-10T19:05:00.998Z,9.761911
2023-03-10T19:06:00.996Z,9.762315
2023-03-10T19:07:01.072Z,9.762315
2023-03-10T19:08:00.996Z,9.762315
2023-03-10T19:09:00.979Z,9.762337
2023-03-10T19:10:00.948Z,9.762066
2023-03-10T19:11:00.945Z,9.762280
2023-03-10T19:12:01.781Z,9.762272
2023-03-10T19:13:00.946Z,9.762272
2023-03-10T19:14:01.816Z,9.762272
2023-03-10T19:15:00.901Z,9.762272
2023-03-10T19:16:00.934Z,9.762272
2023-03-10T19:17:01.065Z,9.762272
2023-03-10T19:18:00.884Z,9.762272
2023-03-10T19:19:01.819Z,9.762272
2023-03-10T19:20:00.853Z,9.762272
2023-03-10T19:21:00.894Z,9.762272
2023-03-10T19:22:00.824Z,9.762272
2023-03-10T19:23:00.835Z,9.762272
2023-03-10T19:24:00.811Z,9.762272
2023-03-10T19:25:00.795Z,9.762272
2023-03-10T19:26:00.790Z,9.762272
2023-03-10T19:27:00.775Z,9.762272
2023-03-10T19:28:00.774Z,9.762955
2023-03-10T19:29:00.765Z,9.762831
2023-03-10T19:30:00.749Z,9.763088
2023-03-10T19:31:00.900Z,9.762954
2023-03-10T19:32:00.754Z,9.762862
2023-03-10T19:33:00.791Z,9.762890
2023-03-10T19:34:00.713Z,9.763012
2023-03-10T19:35:00.691Z,9.763017
2023-03-10T19:36:00.795Z,9.763017
2023-03-10T19:37:00.701Z,9.763017
2023-03-10T19:38:00.685Z,9.763017
2023-03-10T19:39:00.652Z,9.763017
2023-03-10T19:40:00.656Z,9.762881
2023-03-10T19:41:00.635Z,9.763009
2023-03-10T19:42:00.651Z,9.762821
2023-03-10T19:43:00.622Z,9.762821
2023-03-10T19:44:00.609Z,9.762958
2023-03-10T19:45:00.609Z,9.763108
2023-03-10T19:46:00.588Z,9.762749
2023-03-10T19:47:01.366Z,9.763059
2023-03-10T19:48:00.588Z,9.763216
2023-03-10T19:49:00.554Z,9.763351
2023-03-10T19:50:00.559Z,9.763325
2023-03-10T19:51:00.540Z,9.763113
2023-03-10T19:52:00.521Z,9.763165
2023-03-10T19:53:00.521Z,9.762874
2023-03-10T19:54:00.502Z,9.762903
2023-03-10T19:55:00.487Z,9.762899
2023-03-10T19:56:00.480Z,9.763116
2023-03-10T19:57:00.470Z,9.763474
2023-03-10T19:58:00.471Z,9.763474
2023-03-10T19:59:00.455Z,9.763474
2023-03-10T20:00:00.451Z,9.763474
2023-03-10T20:01:00.577Z,9.763474
2023-03-10T20:02:00.552Z,9.763474
2023-03-10T20:03:00.435Z,9.763474
2023-03-10T20:04:00.399Z,9.763474
2023-03-10T20:05:00.395Z,9.763474
2023-03-10T20:06:00.388Z,9.763474
2023-03-10T20:07:00.368Z,9.763474
2023-03-10T20:08:01.228Z,9.763474
2023-03-10T20:09:00.355Z,9.763474
2023-03-10T20:10:00.351Z,9.763474
2023-03-10T20:11:00.329Z,9.763474
2023-03-10T20:12:00.317Z,9.763474
2023-03-10T20:13:00.320Z,9.763474
2023-03-10T20:14:00.307Z,9.763474
2023-03-10T20:15:00.301Z,9.763474
2023-03-10T20:16:00.279Z,9.763474
2023-03-10T20:17:00.269Z,9.763474
2023-03-10T20:18:00.750Z,9.763474
2023-03-10T20:19:00.254Z,9.763474
2023-03-10T20:20:00.239Z,9.763474
2023-03-10T20:21:00.230Z,9.763474
2023-03-10T20:22:00.216Z,9.763474
2023-03-10T20:23:00.214Z,9.763474
2023-03-10T20:24:00.213Z,9.763474
2023-03-10T20:25:00.833Z,9.763474
2023-03-10T20:26:00.176Z,9.763474
2023-03-10T20:27:00.175Z,9.763474
2023-03-10T20:28:00.167Z,9.763474
2023-03-10T20:29:01.824Z,9.763474
2023-03-10T20:30:01.264Z,9.763474
2023-03-10T20:31:00.140Z,9.763474
2023-03-10T20:32:00.163Z,9.763474
2023-03-10T20:33:00.121Z,9.763474
2023-03-10T20:34:00.117Z,9.763474
2023-03-10T20:35:00.106Z,9.763474
2023-03-10T20:36:00.156Z,9.763474
2023-03-10T20:37:00.158Z,9.763474
2023-03-10T20:38:00.065Z,9.763474
2023-03-10T20:39:00.068Z,9.763474
2023-03-10T20:40:00.049Z,9.763474
2023-03-10T20:41:00.679Z,9.763474
2023-03-10T20:42:00.020Z,9.763474
2023-03-10T20:43:00.136Z,9.763474
2023-03-10T20:44:00.003Z,9.763474
2023-03-10T20:44:59.987Z,9.763474
2023-03-10T20:46:00.028Z,9.763474
2023-03-10T20:46:59.967Z,9.763474
2023-03-10T20:48:00.095Z,9.763474
2023-03-10T20:49:00.959Z,9.763474
2023-03-10T20:49:59.937Z,9.763474
2023-03-10T20:50:59.926Z,9.763474
2023-03-10T20:51:59.915Z,9.763474
2023-03-10T20:52:59.902Z,9.763474
2023-03-10T20:54:00.349Z,9.763474
2023-03-10T20:55:00.162Z,9.763474
2023-03-10T20:55:59.883Z,9.763474
2023-03-10T20:57:00.805Z,9.763474
2023-03-10T20:57:59.866Z,9.763474
2023-03-10T20:58:59.870Z,9.763474
2023-03-10T20:59:59.837Z,9.763474
2023-03-10T21:00:59.943Z,9.763474
2023-03-10T21:01:59.822Z,9.763474
2023-03-10T21:02:59.807Z,9.763474
2023-03-10T21:03:59.880Z,9.763474
2023-03-10T21:04:59.909Z,9.763474
2023-03-10T21:05:59.776Z,9.763474
2023-03-10T21:06:59.770Z,9.763474
2023-03-10T21:07:59.754Z,9.763474
2023-03-10T21:08:59.758Z,9.763474
2023-03-10T21:09:59.733Z,9.763474
2023-03-10T21:10:59.820Z,9.763474
2023-03-10T21:11:59.717Z,9.763474
2023-03-10T21:12:59.703Z,9.763474
2023-03-10T21:13:59.704Z,9.763474
2023-03-10T21:14:59.693Z,9.763474
2023-03-10T21:15:59.676Z,9.763474
2023-03-10T21:16:59.748Z,9.763474
2023-03-10T21:17:59.656Z,9.763474
2023-03-10T21:18:59.672Z,9.763474
2023-03-10T21:19:59.636Z,9.763474
2023-03-10T21:20:59.732Z,9.763474
2023-03-10T21:22:01.566Z,9.763474
2023-03-10T21:22:59.604Z,9.763474
2023-03-10T21:23:59.597Z,9.763474
2023-03-10T21:24:59.601Z,9.763474
2023-03-10T21:25:59.575Z,9.763474
2023-03-10T21:26:59.565Z,9.763474
2023-03-10T21:27:59.560Z,9.763474
2023-03-10T21:28:59.546Z,9.763474
2023-03-10T21:29:59.552Z,9.763474
2023-03-10T21:30:59.604Z,9.763474
2023-03-10T21:31:59.547Z,9.763474
2023-03-10T21:32:59.543Z,9.763474
2023-03-10T21:33:59.500Z,9.763474
2023-03-10T21:34:59.510Z,9.763474
2023-03-10T21:35:59.530Z,9.763474
2023-03-10T21:36:59.469Z,9.763474
2023-03-10T21:37:59.477Z,9.763474
2023-03-10T21:38:59.458Z,9.763474
2023-03-10T21:39:59.449Z,9.763474
2023-03-10T21:40:59.438Z,9.763474
2023-03-10T21:41:59.423Z,9.763474
2023-03-10T21:43:02.443Z,9.763474
2023-03-10T21:43:59.417Z,9.763474
2023-03-10T21:44:59.415Z,9.763474
2023-03-10T21:45:59.484Z,9.762961
2023-03-10T21:46:59.379Z,9.762538
2023-03-10T21:47:59.360Z,9.763102
2023-03-10T21:48:59.357Z,9.762906
2023-03-10T21:49:59.357Z,9.762678
2023-03-10T21:50:59.338Z,9.762893
2023-03-10T21:51:59.328Z,9.762911
2023-03-10T21:52:59.370Z,9.762923
2023-03-10T21:53:59.296Z,9.762726
2023-03-10T21:54:59.300Z,9.762977
2023-03-10T21:55:59.285Z,9.762898
2023-03-10T21:56:59.298Z,9.762453
2023-03-10T21:57:59.269Z,9.762582
2023-03-10T21:58:59.255Z,9.762884
2023-03-10T21:59:59.241Z,9.762690
2023-03-10T22:01:00.233Z,9.762570
2023-03-10T22:01:59.228Z,9.763305
2023-03-10T22:02:59.221Z,9.763297
2023-03-10T22:03:59.208Z,9.763297
2023-03-10T22:04:59.197Z,9.762753
2023-03-10T22:05:59.190Z,9.762862
2023-03-10T22:06:59.170Z,9.762401
2023-03-10T22:07:59.171Z,9.763122
2023-03-10T22:08:59.147Z,9.763033
2023-03-10T22:09:59.150Z,9.762650
2023-03-10T22:10:59.130Z,9.762583
2023-03-10T22:11:59.125Z,9.762801
2023-03-10T22:12:59.112Z,9.761871
2023-03-10T22:13:59.097Z,9.761777
2023-03-10T22:14:59.102Z,9.762307
2023-03-10T22:15:59.123Z,9.762543
2023-03-10T22:16:59.068Z,9.762795
2023-03-10T22:17:59.064Z,9.762744
2023-03-10T22:18:59.059Z,9.762280
2023-03-10T22:19:59.050Z,9.762458
2023-03-10T22:20:59.035Z,9.763132
2023-03-10T22:21:59.021Z,9.763625
2023-03-10T22:22:59.016Z,9.762872
2023-03-10T22:23:59.000Z,9.762604
2023-03-10T22:24:59.005Z,9.762907
2023-03-10T22:25:58.986Z,9.764932
2023-03-10T22:26:58.969Z,9.764932
2023-03-10T22:27:58.965Z,9.764932
2023-03-10T22:28:58.954Z,9.764932
2023-03-10T22:29:58.968Z,9.764932
2023-03-10T22:30:58.938Z,9.764932
2023-03-10T22:31:58.919Z,9.764932
2023-03-10T22:32:58.903Z,9.764932
2023-03-10T22:33:58.912Z,9.764932
2023-03-10T22:34:58.900Z,9.764932
2023-03-10T22:35:58.906Z,9.764932
2023-03-10T22:36:59.868Z,9.764932
2023-03-10T22:37:58.855Z,9.764932
2023-03-10T22:38:58.879Z,9.764932
2023-03-10T22:39:58.848Z,9.764932
2023-03-10T22:40:58.834Z,9.764932
2023-03-10T22:41:58.823Z,9.764932
2023-03-10T22:42:58.815Z,9.764932
2023-03-10T22:43:58.793Z,9.764932
2023-03-10T22:44:58.817Z,9.764932
2023-03-10T22:45:58.803Z,9.764932
2023-03-10T22:46:58.875Z,9.764932
2023-03-10T22:47:58.757Z,9.764932
2023-03-10T22:48:58.752Z,9.764932
2023-03-10T22:49:58.767Z,9.764932
2023-03-10T22:50:58.728Z,9.764932
2023-03-10T22:51:58.720Z,9.764932
2023-03-10T22:52:58.712Z,9.764932
2023-03-10T22:53:58.690Z,9.764932
2023-03-10T22:54:58.728Z,9.764932
2023-03-10T22:55:58.672Z,9.764932
2023-03-10T22:57:00.330Z,9.764932
2023-03-10T22:57:58.658Z,9.764932
2023-03-10T22:58:58.642Z,9.764932
2023-03-10T22:59:58.632Z,9.764932
2023-03-10T23:00:58.637Z,9.764932
2023-03-10T23:01:58.679Z,9.764932
2023-03-10T23:02:58.622Z,9.764932
2023-03-10T23:03:58.610Z,9.764932
2023-03-10T23:04:58.582Z,9.764932
2023-03-10T23:05:58.607Z,9.764932
2023-03-10T23:06:58.565Z,9.764932
2023-03-10T23:07:58.554Z,9.764932
2023-03-10T23:08:58.570Z,9.764932
2023-03-10T23:09:58.532Z,9.764932
2023-03-10T23:10:58.529Z,9.764932
2023-03-10T23:11:58.518Z,9.764932
2023-03-10T23:12:58.505Z,9.764932
2023-03-10T23:13:58.493Z,9.764932
2023-03-10T23:14:58.484Z,9.764932
2023-03-10T23:15:58.541Z,9.764932
2023-03-10T23:16:58.474Z,9.764932
2023-03-10T23:17:58.458Z,9.764932
2023-03-10T23:18:58.462Z,9.764932
2023-03-10T23:19:58.430Z,9.764932
2023-03-10T23:20:58.434Z,9.764932
2023-03-10T23:21:58.412Z,9.764932
2023-03-10T23:22:58.406Z,9.764932
2023-03-10T23:23:58.391Z,9.764932
2023-03-10T23:24:58.381Z,9.764932
2023-03-10T23:25:59.393Z,9.764932
2023-03-10T23:26:58.371Z,9.764932
2023-03-10T23:27:58.344Z,9.764932
2023-03-10T23:28:58.349Z,9.764932
2023-03-10T23:29:58.341Z,9.764932
2023-03-10T23:30:58.339Z,9.764932
2023-03-10T23:31:58.318Z,9.764932
2023-03-10T23:32:58.308Z,9.764932
2023-03-10T23:33:58.301Z,9.764932
2023-03-10T23:34:58.283Z,9.764932
2023-03-10T23:35:58.343Z,9.764932
2023-03-10T23:36:58.281Z,9.764932
2023-03-10T23:37:58.265Z,9.764932
2023-03-10T23:38:58.247Z,9.764932
2023-03-10T23:39:58.233Z,9.764932
2023-03-10T23:40:58.237Z,9.764932
2023-03-10T23:41:58.209Z,9.764932
2023-03-10T23:42:58.202Z,9.764932
2023-03-10T23:43:58.204Z,9.764932
2023-03-10T23:44:58.184Z,9.764932
2023-03-10T23:45:58.229Z,9.764932
2023-03-10T23:46:58.161Z,9.764932
2023-03-10T23:47:58.155Z,9.764932
2023-03-10T23:48:58.139Z,9.764932
2023-03-10T23:49:58.141Z,9.764932
2023-03-10T23:50:58.136Z,9.764932
2023-03-10T23:51:58.121Z,9.764932
2023-03-10T23:52:58.105Z,9.764932
2023-03-10T23:53:58.085Z,9.764932
2023-03-10T23:54:58.087Z,9.764932
2023-03-10T23:55:58.092Z,9.764932
2023-03-10T23:56:58.076Z,9.764932
2023-03-10T23:57:58.111Z,9.764932
2023-03-10T23:58:58.090Z,9.764932
2023-03-10T23:59:58.051Z,9.764932
